Terminal Aerodrome Forecast
Issued by NWS

Home | Current Version | Previous Version | Text Only | Print | Product List | Glossary On
Versions: 1 2 3 4 5 6 7 8 9 10
000
FTUS44 KBMX 280500 RRA
TAFTCL
TAF
KTCL 280545Z 2806/2906 11007KT 4SM RA BR BKN006 OVC035
      TEMPO 2806/2807 SCT006 BKN035 OVC080
     FM280700 12007KT 2SM RA BR OVC004
     FM281500 25006KT 5SM SHRA BR OVC007=

USA.gov is the U.S. government's official web portal to all federal, state and local government web resources and services.